Portland, Oregon
Traffic Map
Current Weather Conditions
Portland, Oregon
Scattered Clouds
Scattered Clouds

Feels Like: 3°
Wind Chill: Ceiling: Unl
Heat Index: Visibility: 10mi
Dew Point: Wind: 0mph
Humidity: 89% Direction: ° ()
Pressure: 30.18in Gusts: 0mph
Raw Report DataKPDX 242021Z 00000KT 10SM FEW005 SCT009 03/01 A3018 RMK AO2 T00280011
Traffic Incident Summary
Active as of:
Severity:
Category:
InformationThere was an issue retrieving the traffic information for this location. Please try a different location or try again shortly.
Advertisements
Track Severe Weather on mobile